Aérodrome :
LOGIN :

S'inscrire | Disclaimer

   EN    FR    IT 

 










Légende :    VFR   VFR Marginal   IFR   IFR Intensif   IFR Très Intensif
Visi : 
Plafond : 
>= 8 km
>= 3000ft
5 à 8 km
1000 à 3000 ft
1500m à 5 km
500 à 1000 ft
800 à 1500m
200 à 500 ft
< 800m
< 200 ft
Symboles :   Orages  Brouillard  Fortes neiges  Fortes précipitations  Vent > 20 kt
SIGMETs :   Divers  Orages  Givrage  Turbulence  Onde Orograph.  Cendres Volcan.







- Altitude de l'aérodrome : 1416 ft
- Code IATA : ZRH


LSZH - Zurich

DERNIER METAR :
  • 170720Z 19004KT 160V220 CAVOK 22/12 Q1017 NOSIG

METARs EXPIRÉS :
  • 170650Z VRB02KT CAVOK 20/13 Q1017 NOSIG
  • 170620Z 00000KT CAVOK 19/14 Q1017 NOSIG
  • 170550Z 00000KT CAVOK 17/13 Q1017 NOSIG
  • 170520Z 00000KT CAVOK 16/13 Q1017 NOSIG
  • 170450Z 00000KT CAVOK 14/12 Q1017 NOSIG

TAF TAF LSZH
Valide du 17 à 06h jusqu'au 18 à 12h UTC


170525Z 1706/1812 VRB03KT CAVOK TX29/1714Z TN17/1706Z TN13/1804Z
BECMG 1709/1712 9999 FEW060TCU
TEMPO 1711/1719 28012KT SHRA SCT050TCU
PROB30
TEMPO 1712/1718 29015G28KT TSRA SCT050CB
BECMG 1722/1801 CAVOK
BECMG 1809/1812 9999 FEW060
ATIS : +41 43 816 2295 (DEP) +41 43 816 2294 (ARR)
Pas de NOTAMs connus pour ce terrain.



MET'MAP, la Météo Aéronautique d'un coup d'oeil ! - Copyright ORBIFLY Décembre 2007 - Disclaimer

ORBIFLY MET'MAP TEAM :

Programmation & Développement : Alexandra Zaïnal
Conception & Développement : Baudouin d'Aumeries
Co-Programmation & Développement : Marc-Olivier Méhu
Soutien technique & logistique : Manuel Goepfert

Contact : metmap@orbifly.com




SOURCES & CREDITS :

   NOAA